Time;durP1;ratioP1;P1;durP2;ratioP2;P2;SDS_P1;SDS_P2;PMS_P1;PMS_P2;Temp;Humidity;BMP_temperature;BMP_pressure;BME280_temperature;BME280_humidity;BME280_pressure;Samples;Min_cycle;Max_cycle;Signal;HPM_P1;HPM_P2
2022/09/05 00:01:27;;;;;;;4.75;2.90;;;18.00;99.90;;;;;;4995180;28;20467;-59
2022/09/05 00:04:20;;;;;;;4.85;3.13;;;18.00;99.90;;;;;;5052709;28;20115;-56
2022/09/05 00:06:57;;;;;;;3.88;2.85;;;17.90;99.90;;;;;;5058478;28;20036;-59
2022/09/05 00:09:50;;;;;;;7.80;2.70;;;17.90;99.90;;;;;;5063177;28;20036;-59
2022/09/05 00:12:16;;;;;;;6.90;3.17;;;17.90;99.90;;;;;;5064583;28;20055;-59
2022/09/05 00:14:44;;;;;;;4.55;2.50;;;17.80;99.90;;;;;;5057015;28;20024;-59
2022/09/05 00:17:37;;;;;;;3.05;2.63;;;17.70;99.90;;;;;;5056259;28;20139;-59
2022/09/05 00:20:11;;;;;;;3.20;2.42;;;17.60;99.90;;;;;;5063973;28;20124;-58
2022/09/05 00:22:46;;;;;;;3.97;2.50;;;17.50;99.90;;;;;;5062271;28;20030;-58
2022/09/05 00:25:45;;;;;;;6.55;2.90;;;17.40;99.90;;;;;;5063714;28;20039;-58
2022/09/05 00:28:31;;;;;;;3.10;2.63;;;17.30;99.90;;;;;;5063546;28;20036;-58
2022/09/05 00:31:28;;;;;;;4.95;2.75;;;17.30;99.90;;;;;;5062545;28;20056;-56
2022/09/05 00:34:21;;;;;;;4.68;3.08;;;17.40;99.90;;;;;;5064885;28;20394;-60
2022/09/05 00:36:53;;;;;;;4.10;3.08;;;17.40;99.90;;;;;;5062775;28;20490;-59
2022/09/05 00:39:25;;;;;;;3.85;3.20;;;17.40;99.90;;;;;;5063195;28;20028;-59
2022/09/05 00:41:55;;;;;;;9.60;3.33;;;17.40;99.90;;;;;;5062025;28;20032;-59
2022/09/05 00:44:25;;;;;;;3.92;2.75;;;17.30;99.90;;;;;;5060843;28;20039;-59
2022/09/05 00:47:16;;;;;;;9.02;3.38;;;17.30;99.90;;;;;;5062255;28;20441;-59
2022/09/05 00:49:52;;;;;;;4.57;3.30;;;17.30;99.90;;;;;;5063561;28;20063;-58
2022/09/05 00:52:26;;;;;;;4.45;3.00;;;17.20;99.90;;;;;;5066198;28;20036;-57
2022/09/05 00:55:19;;;;;;;4.43;2.78;;;17.20;99.90;;;;;;5062738;28;20082;-58
2022/09/05 00:57:49;;;;;;;4.10;2.92;;;17.10;99.90;;;;;;5066195;28;20090;-58
2022/09/05 01:00:31;;;;;;;3.75;3.00;;;17.00;99.90;;;;;;5062114;28;20922;-59
2022/09/05 01:03:34;;;;;;;5.60;3.45;;;17.00;99.90;;;;;;5063443;28;20017;-58
2022/09/05 01:06:26;;;;;;;6.78;3.40;;;16.90;99.90;;;;;;5031175;28;20045;-59
2022/09/05 01:09:15;;;;;;;6.05;3.15;;;16.90;99.90;;;;;;5063466;28;20029;-59
2022/09/05 01:11:58;;;;;;;8.50;3.53;;;16.90;99.90;;;;;;5069726;28;20482;-59
2022/09/05 01:14:38;;;;;;;4.82;3.28;;;16.80;99.90;;;;;;5065763;28;20035;-57
2022/09/05 01:17:31;;;;;;;7.70;3.17;;;16.70;99.90;;;;;;5065370;28;20036;-59
2022/09/05 01:20:11;;;;;;;8.65;4.03;;;16.70;99.90;;;;;;5068278;28;20077;-57
2022/09/05 01:22:57;;;;;;;4.38;3.63;;;16.60;99.90;;;;;;5068437;28;20434;-58
2022/09/05 01:25:34;;;;;;;4.47;3.30;;;16.60;99.90;;;;;;5067228;28;20036;-58
2022/09/05 01:28:20;;;;;;;5.88;3.28;;;16.50;99.90;;;;;;5068686;28;20143;-58
2022/09/05 01:31:11;;;;;;;4.82;3.63;;;16.50;99.90;;;;;;5067751;28;20025;-57
2022/09/05 01:34:08;;;;;;;5.13;3.58;;;16.50;99.90;;;;;;5083528;28;20045;-58
2022/09/05 01:37:06;;;;;;;5.45;3.72;;;16.50;99.90;;;;;;5067921;28;20032;-58
2022/09/05 01:39:57;;;;;;;5.78;3.90;;;16.40;99.90;;;;;;5066044;28;20024;-56
2022/09/05 01:42:31;;;;;;;5.53;3.72;;;16.40;99.90;;;;;;5062630;28;20025;-59
2022/09/05 01:45:25;;;;;;;3.88;3.22;;;16.40;99.90;;;;;;5066253;28;20020;-58
2022/09/05 01:48:09;;;;;;;7.07;3.50;;;16.30;99.90;;;;;;5068877;28;20576;-58
2022/09/05 01:50:52;;;;;;;6.35;3.85;;;16.30;99.90;;;;;;5064471;28;20430;-58
2022/09/05 01:53:43;;;;;;;4.22;3.50;;;16.30;99.90;;;;;;5066424;28;20099;-56
2022/09/05 01:56:37;;;;;;;6.03;3.47;;;16.30;99.90;;;;;;5063763;28;20104;-60
2022/09/05 01:59:39;;;;;;;5.93;3.17;;;16.20;99.90;;;;;;5066455;28;20044;-60
2022/09/05 02:02:13;;;;;;;5.55;3.30;;;16.20;99.90;;;;;;5064989;28;20517;-59
2022/09/05 02:04:57;;;;;;;6.90;3.53;;;16.20;99.90;;;;;;5065724;28;20030;-58
2022/09/05 02:07:50;;;;;;;6.63;3.70;;;16.10;99.90;;;;;;5065889;28;20027;-57
2022/09/05 02:10:47;;;;;;;5.38;3.60;;;16.00;99.90;;;;;;5065928;28;20379;-58
2022/09/05 02:13:16;;;;;;;5.90;3.97;;;16.00;99.90;;;;;;5066248;28;20390;-57
2022/09/05 02:16:14;;;;;;;8.73;4.72;;;16.00;99.90;;;;;;5064976;28;20402;-56
2022/09/05 02:18:46;;;;;;;6.15;3.95;;;15.90;99.90;;;;;;5065279;28;20032;-58
2022/09/05 02:21:34;;;;;;;9.38;3.85;;;15.90;99.90;;;;;;5065350;28;20124;-58
2022/09/05 02:24:22;;;;;;;4.63;3.35;;;15.90;99.90;;;;;;5065653;28;20044;-58
2022/09/05 02:26:56;;;;;;;4.88;3.45;;;15.90;99.90;;;;;;5065623;28;20502;-59
2022/09/05 02:29:43;;;;;;;5.88;4.07;;;15.90;99.90;;;;;;5066793;28;20115;-58
2022/09/05 02:32:53;;;;;;;7.18;3.28;;;15.90;99.90;;;;;;5062438;28;20078;-57
2022/09/05 02:35:30;;;;;;;5.95;3.45;;;15.80;99.90;;;;;;5036862;28;20384;-56
2022/09/05 02:38:17;;;;;;;5.00;3.35;;;15.80;99.90;;;;;;5066236;28;20073;-59
2022/09/05 02:40:57;;;;;;;4.90;3.38;;;15.70;99.90;;;;;;5062470;28;20062;-57
2022/09/05 02:43:28;;;;;;;6.13;3.63;;;15.70;99.90;;;;;;5065788;28;20081;-57
2022/09/05 02:45:59;;;;;;;5.72;4.50;;;15.60;99.90;;;;;;5065461;28;20028;-57
2022/09/05 02:48:24;;;;;;;4.95;3.17;;;15.60;99.90;;;;;;5064027;28;20043;-58
2022/09/05 02:51:12;;;;;;;9.93;3.55;;;15.60;99.90;;;;;;5064692;28;20032;-57
2022/09/05 02:53:42;;;;;;;6.70;3.78;;;15.60;99.90;;;;;;5060911;28;20035;-56
2022/09/05 02:56:33;;;;;;;8.95;3.95;;;15.60;99.90;;;;;;5063549;28;20036;-57
2022/09/05 02:59:11;;;;;;;7.65;4.15;;;15.70;99.90;;;;;;5064662;28;20060;-58
2022/09/05 03:01:53;;;;;;;4.72;3.50;;;15.70;99.90;;;;;;5066375;28;20032;-57
2022/09/05 03:04:33;;;;;;;13.43;4.45;;;15.80;99.90;;;;;;5064694;28;20020;-59
2022/09/05 03:07:08;;;;;;;6.90;3.90;;;15.80;99.90;;;;;;5063146;28;20091;-60
2022/09/05 03:09:37;;;;;;;5.28;3.45;;;15.70;99.90;;;;;;5063458;28;20406;-58
2022/09/05 03:12:21;;;;;;;3.78;3.38;;;15.70;99.90;;;;;;5065771;28;20028;-57
2022/09/05 03:15:13;;;;;;;6.60;3.95;;;15.60;99.90;;;;;;5063653;28;20028;-57
2022/09/05 03:18:17;;;;;;;5.18;3.58;;;15.70;99.90;;;;;;5066772;28;20525;-57
2022/09/05 03:21:00;;;;;;;8.43;3.80;;;15.60;99.90;;;;;;5064738;28;20034;-57
2022/09/05 03:23:50;;;;;;;8.18;4.03;;;15.70;99.90;;;;;;5064541;28;20044;-57
2022/09/05 03:26:27;;;;;;;7.70;4.03;;;15.70;99.90;;;;;;5064774;28;20493;-57
2022/09/05 03:29:10;;;;;;;8.68;4.18;;;15.60;99.90;;;;;;5065216;28;20067;-57
2022/09/05 03:31:55;;;;;;;7.60;4.40;;;15.60;99.90;;;;;;5062633;28;20020;-56
2022/09/05 03:34:40;;;;;;;8.82;4.63;;;15.60;99.90;;;;;;5065755;28;20020;-58
2022/09/05 03:37:18;;;;;;;9.10;4.47;;;15.60;99.90;;;;;;5065147;28;20060;-58
2022/09/05 03:40:14;;;;;;;6.57;4.70;;;15.60;99.90;;;;;;5066831;28;20766;-57
2022/09/05 03:42:47;;;;;;;9.15;3.90;;;15.60;99.90;;;;;;5063064;28;20017;-58
2022/09/05 03:45:28;;;;;;;7.40;4.50;;;15.50;99.90;;;;;;5061644;28;20019;-55
2022/09/05 03:48:01;;;;;;;6.45;4.00;;;15.50;99.90;;;;;;5068279;28;20029;-57
2022/09/05 03:50:35;;;;;;;6.80;3.88;;;15.40;99.90;;;;;;5066846;28;20025;-57
2022/09/05 03:53:13;;;;;;;8.05;4.18;;;15.40;99.90;;;;;;5079379;28;20507;-58
2022/09/05 03:56:13;;;;;;;6.63;3.58;;;15.40;99.90;;;;;;5059958;28;20025;-57
2022/09/05 03:59:03;;;;;;;7.82;4.13;;;15.40;99.90;;;;;;5060873;28;20039;-57
2022/09/05 04:01:34;;;;;;;6.78;3.75;;;15.40;99.90;;;;;;5062154;28;20020;-57
2022/09/05 04:04:20;;;;;;;7.45;3.85;;;15.40;99.90;;;;;;5060730;28;20605;-58
2022/09/05 04:07:04;;;;;;;9.18;4.40;;;15.30;99.90;;;;;;5060560;28;20032;-58
2022/09/05 04:09:39;;;;;;;5.68;3.90;;;15.40;99.90;;;;;;5061246;28;20029;-57
2022/09/05 04:12:15;;;;;;;7.60;3.70;;;15.40;99.90;;;;;;5060380;28;20052;-59
2022/09/05 04:15:25;;;;;;;9.50;4.18;;;15.40;99.90;;;;;;5063215;28;20036;-59
2022/09/05 04:17:58;;;;;;;10.20;4.32;;;15.40;99.90;;;;;;5061152;28;20039;-58
2022/09/05 04:20:41;;;;;;;7.88;3.88;;;15.40;99.90;;;;;;5063843;28;20035;-59
2022/09/05 04:23:42;;;;;;;6.18;4.00;;;15.40;99.90;;;;;;5064606;28;20083;-59
2022/09/05 04:26:42;;;;;;;7.07;3.90;;;15.40;99.90;;;;;;5063843;28;20051;-59
2022/09/05 04:29:24;;;;;;;5.70;3.90;;;15.40;99.90;;;;;;5061279;28;20045;-58
2022/09/05 04:31:56;;;;;;;7.32;4.07;;;15.40;99.90;;;;;;5064252;28;20111;-59
2022/09/05 04:34:29;;;;;;;11.00;3.72;;;15.40;99.90;;;;;;5064164;28;20025;-59
2022/09/05 04:37:06;;;;;;;4.93;3.43;;;15.40;99.90;;;;;;5062625;28;20036;-61
2022/09/05 04:39:33;;;;;;;4.40;3.40;;;15.40;99.90;;;;;;5059412;28;20283;-58
2022/09/05 04:42:04;;;;;;;4.78;3.30;;;15.40;99.90;;;;;;5063199;28;20494;-58
2022/09/05 04:44:48;;;;;;;5.90;4.10;;;15.40;99.90;;;;;;5067883;28;20029;-56
2022/09/05 04:47:22;;;;;;;3.90;3.38;;;15.30;99.90;;;;;;5067402;28;20047;-56
2022/09/05 04:50:04;;;;;;;4.55;3.33;;;15.30;99.90;;;;;;5067012;28;20424;-58
2022/09/05 04:53:01;;;;;;;5.72;3.40;;;15.30;99.90;;;;;;5065857;28;20051;-58
2022/09/05 04:55:31;;;;;;;5.65;3.40;;;15.30;99.90;;;;;;5064408;28;20033;-57
2022/09/05 04:58:09;;;;;;;5.72;3.45;;;15.40;99.90;;;;;;5066199;28;20490;-55
2022/09/05 05:00:54;;;;;;;4.78;3.33;;;15.40;99.90;;;;;;5061597;28;20028;-58
2022/09/05 05:03:31;;;;;;;12.07;3.50;;;15.40;99.90;;;;;;5068660;28;20039;-58
2022/09/05 05:06:05;;;;;;;7.22;3.88;;;15.50;99.90;;;;;;5068833;28;20040;-58
2022/09/05 05:08:48;;;;;;;5.55;3.50;;;15.50;99.90;;;;;;5061646;28;20032;-57
2022/09/05 05:11:19;;;;;;;7.45;3.58;;;15.60;99.90;;;;;;5063186;28;20032;-58
2022/09/05 05:14:01;;;;;;;8.48;3.50;;;15.60;99.90;;;;;;5063126;28;20040;-57
2022/09/05 05:16:31;;;;;;;5.57;3.10;;;15.70;99.90;;;;;;5061291;28;20048;-57
2022/09/05 05:18:59;;;;;;;5.68;3.08;;;15.70;99.90;;;;;;5066605;28;20436;-56
2022/09/05 05:21:29;;;;;;;11.55;3.70;;;15.80;99.90;;;;;;5064957;28;20031;-65
2022/09/05 05:23:59;;;;;;;9.20;3.40;;;15.80;99.90;;;;;;5065368;28;20143;-54
2022/09/05 05:26:35;;;;;;;5.80;3.13;;;15.80;99.90;;;;;;5064710;28;20028;-58
2022/09/05 05:29:06;;;;;;;5.65;3.33;;;15.90;99.90;;;;;;5065353;28;20025;-58
2022/09/05 05:31:46;;;;;;;3.90;3.33;;;15.90;99.90;;;;;;5061070;28;20100;-57
2022/09/05 05:34:45;;;;;;;4.18;3.08;;;15.90;99.90;;;;;;5066858;28;20043;-56
2022/09/05 05:37:23;;;;;;;9.40;3.53;;;16.00;99.90;;;;;;5066581;28;20036;-57
2022/09/05 05:40:07;;;;;;;4.70;3.03;;;16.00;99.90;;;;;;5071321;28;20375;-56
2022/09/05 05:42:35;;;;;;;4.47;3.13;;;16.00;99.90;;;;;;5065978;28;20024;-55
2022/09/05 05:45:02;;;;;;;4.40;3.20;;;16.10;99.90;;;;;;5082132;28;20031;-59
2022/09/05 05:47:36;;;;;;;8.50;3.70;;;16.10;99.90;;;;;;5070257;28;20013;-57
2022/09/05 05:50:09;;;;;;;4.43;3.47;;;16.10;99.90;;;;;;5070038;28;20060;-57
2022/09/05 05:53:06;;;;;;;6.40;2.92;;;16.20;99.90;;;;;;5066074;28;20021;-58
2022/09/05 05:55:52;;;;;;;5.95;3.17;;;16.20;99.90;;;;;;5061088;28;20166;-59
2022/09/05 05:58:54;;;;;;;4.35;3.35;;;16.30;99.90;;;;;;5066051;28;20056;-57
2022/09/05 06:01:57;;;;;;;8.05;2.95;;;16.40;99.90;;;;;;5059813;28;20021;-56
2022/09/05 06:05:00;;;;;;;3.90;2.83;;;16.40;99.90;;;;;;5074265;28;20115;-60
2022/09/05 06:07:43;;;;;;;4.32;3.33;;;16.50;99.90;;;;;;5061373;28;20021;-61
2022/09/05 06:10:26;;;;;;;4.40;2.97;;;16.50;99.90;;;;;;5061524;28;20502;-58
2022/09/05 06:13:20;;;;;;;5.32;3.15;;;16.60;99.90;;;;;;5060625;28;20028;-60
2022/09/05 06:16:06;;;;;;;4.25;3.17;;;16.60;99.90;;;;;;5063885;28;20032;-56
2022/09/05 06:19:13;;;;;;;4.05;3.22;;;16.60;99.90;;;;;;5064899;28;20032;-56
2022/09/05 06:22:19;;;;;;;4.88;3.30;;;16.70;99.90;;;;;;5064976;28;20108;-57
2022/09/05 06:25:23;;;;;;;4.68;3.38;;;16.80;99.90;;;;;;5066263;28;20165;-58
2022/09/05 06:28:04;;;;;;;7.97;3.78;;;16.90;99.90;;;;;;5069462;28;20039;-56
2022/09/05 06:30:42;;;;;;;8.52;3.40;;;17.00;99.90;;;;;;5065279;28;20055;-57
2022/09/05 06:33:33;;;;;;;3.97;3.17;;;17.20;99.90;;;;;;5057662;28;20033;-61
2022/09/05 06:36:24;;;;;;;3.78;3.15;;;17.30;99.90;;;;;;5068352;28;20056;-58
2022/09/05 06:39:37;;;;;;;4.90;2.85;;;17.40;99.90;;;;;;5059546;28;20066;-57
2022/09/05 06:42:19;;;;;;;5.13;3.05;;;17.60;99.90;;;;;;5015969;28;20477;-58
2022/09/05 06:45:05;;;;;;;4.18;3.13;;;17.70;99.90;;;;;;5061561;28;20039;-60
2022/09/05 06:47:35;;;;;;;6.00;3.15;;;17.70;99.90;;;;;;5067794;28;20078;-58
2022/09/05 06:50:04;;;;;;;5.07;3.17;;;17.90;99.90;;;;;;5065814;28;20020;-60
2022/09/05 06:52:54;;;;;;;6.38;2.88;;;17.90;99.90;;;;;;5060746;28;20455;-56
2022/09/05 06:55:40;;;;;;;7.13;2.80;;;18.00;99.90;;;;;;5080585;28;20021;-58
2022/09/05 06:58:35;;;;;;;5.82;3.70;;;18.10;99.90;;;;;;5064352;28;20463;-58
2022/09/05 07:01:01;;;;;;;;;;;18.20;99.90;;;;;;5063353;28;20500;-57
2022/09/05 07:03:36;;;;;;;9.27;3.20;;;18.30;99.90;;;;;;5060770;28;19908;-56
2022/09/05 07:06:17;;;;;;;4.68;2.53;;;18.40;99.90;;;;;;5059632;28;20025;-61
2022/09/05 07:08:54;;;;;;;4.13;3.17;;;18.50;99.90;;;;;;5062486;28;20029;-55
2022/09/05 07:11:24;;;;;;;5.03;3.20;;;18.70;99.90;;;;;;5064366;28;20062;-59
2022/09/05 07:14:07;;;;;;;4.28;2.80;;;18.80;99.90;;;;;;5060797;28;20032;-60
2022/09/05 07:16:41;;;;;;;9.27;2.63;;;18.90;99.90;;;;;;5058150;28;20580;-59
2022/09/05 07:19:16;;;;;;;5.45;3.17;;;19.00;99.90;;;;;;5066925;28;20512;-61
2022/09/05 07:22:12;;;;;;;4.75;2.63;;;19.00;99.90;;;;;;5065815;28;20575;-54
2022/09/05 07:24:42;;;;;;;4.97;2.83;;;19.10;99.90;;;;;;5069387;28;20020;-56
2022/09/05 07:27:10;;;;;;;3.90;3.00;;;19.30;99.90;;;;;;5068693;28;20024;-57
2022/09/05 07:29:43;;;;;;;4.75;3.50;;;19.40;99.90;;;;;;5066694;28;20375;-57
2022/09/05 07:32:17;;;;;;;5.25;2.83;;;19.40;99.90;;;;;;5060251;28;20036;-55
2022/09/05 07:34:46;;;;;;;3.07;2.70;;;19.60;99.90;;;;;;5065703;28;20051;-57
2022/09/05 07:37:20;;;;;;;12.20;3.83;;;19.70;99.90;;;;;;5066578;28;20020;-60
2022/09/05 07:39:54;;;;;;;;;;;19.80;99.90;;;;;;5069555;28;20024;-58
2022/09/05 07:42:29;;;;;;;3.65;3.00;;;20.00;99.90;;;;;;5068191;28;19915;-57
2022/09/05 07:45:01;;;;;;;5.38;3.22;;;20.10;99.90;;;;;;5066468;28;20056;-62
2022/09/05 07:47:29;;;;;;;5.57;3.22;;;20.30;99.90;;;;;;5067072;28;20390;-58
2022/09/05 07:49:57;;;;;;;7.28;3.65;;;20.40;99.90;;;;;;5063163;28;20085;-60
2022/09/05 07:52:26;;;;;;;5.68;3.05;;;20.40;99.90;;;;;;5085569;28;20051;-57
2022/09/05 07:54:53;;;;;;;16.10;4.40;;;20.50;99.90;;;;;;5068082;28;20406;-55
2022/09/05 07:57:26;;;;;;;7.78;3.13;;;20.60;99.90;;;;;;5063419;28;20618;-52
2022/09/05 07:59:56;;;;;;;10.70;3.13;;;20.70;99.90;;;;;;5065041;28;20025;-53
2022/09/05 08:02:22;;;;;;;6.45;2.92;;;20.80;99.90;;;;;;5060937;28;20020;-56
2022/09/05 08:04:48;;;;;;;6.78;3.08;;;20.90;99.90;;;;;;5062961;28;20418;-58
2022/09/05 08:07:29;;;;;;;4.82;3.20;;;20.90;99.90;;;;;;5065976;28;20064;-62
2022/09/05 08:10:00;;;;;;;4.47;2.90;;;21.00;99.90;;;;;;5063390;28;20025;-61
2022/09/05 08:12:32;;;;;;;6.55;2.58;;;21.10;99.90;;;;;;5067436;28;20028;-61
2022/09/05 08:15:10;;;;;;;5.85;2.50;;;21.20;99.90;;;;;;5075925;28;20025;-59
2022/09/05 08:17:45;;;;;;;6.60;2.58;;;21.40;99.90;;;;;;5058260;28;20044;-64
2022/09/05 08:20:31;;;;;;;5.30;2.50;;;21.50;99.90;;;;;;5063734;28;20575;-60
2022/09/05 08:23:10;;;;;;;4.65;2.10;;;21.60;99.90;;;;;;5066039;28;20110;-60
2022/09/05 08:25:52;;;;;;;5.55;2.55;;;21.70;99.90;;;;;;5067070;28;20406;-63
2022/09/05 08:28:25;;;;;;;4.15;2.60;;;21.80;99.90;;;;;;5064571;28;20024;-60
2022/09/05 08:31:05;;;;;;;5.50;2.60;;;22.00;99.90;;;;;;5061716;28;20066;-58
2022/09/05 08:33:34;;;;;;;5.85;2.28;;;22.10;99.90;;;;;;5060674;28;20035;-57
2022/09/05 08:36:22;;;;;;;7.30;2.75;;;22.20;99.90;;;;;;5064096;28;20047;-60
2022/09/05 08:38:49;;;;;;;6.20;2.72;;;22.30;99.90;;;;;;5065408;28;20021;-62
2022/09/05 08:41:34;;;;;;;3.95;1.85;;;22.40;99.90;;;;;;5067119;28;20520;-59
2022/09/05 08:44:26;;;;;;;3.28;2.20;;;22.60;99.90;;;;;;5067030;28;20040;-60
2022/09/05 08:47:00;;;;;;;3.55;1.85;;;22.80;99.90;;;;;;5062452;28;20122;-59
2022/09/05 08:49:50;;;;;;;3.75;2.55;;;22.80;99.90;;;;;;5065032;28;20102;-61
2022/09/05 08:52:37;;;;;;;3.03;1.98;;;23.00;99.90;;;;;;5066216;28;20577;-58
2022/09/05 08:55:08;;;;;;;5.32;2.17;;;23.10;99.90;;;;;;5065692;28;20032;-58
2022/09/05 08:58:01;;;;;;;3.35;2.17;;;23.30;99.90;;;;;;5067013;28;20094;-64
2022/09/05 09:00:35;;;;;;;2.72;2.15;;;23.40;99.90;;;;;;5065727;28;20033;-58
2022/09/05 09:03:11;;;;;;;4.10;2.00;;;23.60;99.90;;;;;;5059869;28;20029;-59
2022/09/05 09:05:58;;;;;;;3.60;1.65;;;23.90;99.90;;;;;;5064975;28;20025;-57
2022/09/05 09:08:46;;;;;;;3.28;2.00;;;24.10;99.90;;;;;;5065104;28;20591;-58
2022/09/05 09:11:33;;;;;;;7.28;1.67;;;24.30;99.90;;;;;;5065509;28;20045;-58
2022/09/05 09:14:46;;;;;;;5.03;1.80;;;24.40;99.90;;;;;;5066543;28;20028;-57
2022/09/05 09:17:30;;;;;;;3.60;2.38;;;24.60;99.90;;;;;;5062662;28;20054;-61
2022/09/05 09:20:40;;;;;;;1.70;1.60;;;24.80;99.90;;;;;;5065804;28;20032;-58
2022/09/05 09:23:39;;;;;;;2.78;1.60;;;25.00;99.90;;;;;;5062243;28;20032;-57
2022/09/05 09:26:04;;;;;;;5.85;2.03;;;25.20;99.90;;;;;;5063669;28;20037;-61
2022/09/05 09:28:41;;;;;;;11.77;2.17;;;25.40;99.90;;;;;;5065450;28;20031;-60
2022/09/05 09:31:35;;;;;;;6.03;1.50;;;25.50;99.90;;;;;;5064592;28;20409;-58
2022/09/05 09:34:15;;;;;;;2.33;1.50;;;25.50;99.90;;;;;;5070030;28;20085;-59
2022/09/05 09:37:19;;;;;;;1.95;1.30;;;25.70;99.90;;;;;;5068033;28;20028;-59
2022/09/05 09:40:20;;;;;;;4.40;1.60;;;25.80;99.90;;;;;;5067541;28;20037;-59
2022/09/05 09:42:53;;;;;;;1.95;1.60;;;26.10;99.90;;;;;;5065889;28;20028;-60
2022/09/05 09:45:40;;;;;;;7.27;2.20;;;26.30;99.90;;;;;;5069107;28;20082;-61
2022/09/05 09:48:53;;;;;;;1.90;1.48;;;26.50;99.90;;;;;;5069839;28;20397;-58
2022/09/05 09:51:37;;;;;;;5.28;1.40;;;26.60;99.90;;;;;;5056884;28;20645;-61
2022/09/05 09:54:15;;;;;;;1.52;1.20;;;26.90;99.90;;;;;;5069816;28;20641;-59
2022/09/05 09:57:02;;;;;;;3.65;1.40;;;27.00;99.90;;;;;;5067148;28;20024;-63
2022/09/05 10:00:01;;;;;;;2.67;1.23;;;27.20;99.90;;;;;;5068984;28;20886;-60
2022/09/05 10:03:01;;;;;;;3.08;1.10;;;27.50;99.90;;;;;;5042534;28;20063;-60
2022/09/05 10:06:03;;;;;;;6.20;1.38;;;27.70;99.90;;;;;;5068842;28;20040;-63
2022/09/05 10:09:17;;;;;;;4.57;1.42;;;27.70;99.90;;;;;;5065348;28;20033;-60
2022/09/05 10:11:49;;;;;;;3.60;1.73;;;27.70;99.90;;;;;;5054683;28;20120;-61
2022/09/05 10:14:44;;;;;;;4.97;1.50;;;27.90;99.50;;;;;;5070081;28;20017;-58
2022/09/05 10:17:26;;;;;;;3.97;1.48;;;28.00;99.50;;;;;;5069590;28;20032;-59
2022/09/05 10:20:17;;;;;;;7.53;1.40;;;28.20;98.50;;;;;;5069602;28;20048;-61
2022/09/05 10:22:58;;;;;;;3.65;1.30;;;28.40;97.40;;;;;;5060730;28;20025;-60
2022/09/05 10:26:08;;;;;;;2.42;1.65;;;28.60;96.60;;;;;;5061730;28;20020;-58
2022/09/05 10:29:02;;;;;;;2.53;1.70;;;28.70;96.80;;;;;;5065600;28;20025;-58
2022/09/05 10:32:05;;;;;;;2.92;1.10;;;28.90;97.20;;;;;;5069577;28;20017;-57
2022/09/05 10:34:53;;;;;;;4.47;1.40;;;29.20;96.00;;;;;;5068102;28;20078;-58
2022/09/05 10:37:19;;;;;;;5.82;1.95;;;29.50;96.90;;;;;;5060725;28;20111;-58
2022/09/05 10:39:50;;;;;;;4.80;1.40;;;29.50;96.40;;;;;;5069623;28;20267;-61
2022/09/05 10:42:36;;;;;;;2.13;1.20;;;29.70;95.10;;;;;;5063306;28;20525;-59
2022/09/05 10:45:07;;;;;;;5.45;2.13;;;29.90;94.40;;;;;;5070809;28;20021;-65
2022/09/05 10:48:15;;;;;;;2.17;1.20;;;30.00;93.60;;;;;;5070672;28;20498;-61
2022/09/05 10:50:54;;;;;;;4.35;1.45;;;30.10;93.30;;;;;;5040078;28;20049;-61
2022/09/05 10:53:37;;;;;;;3.75;1.77;;;29.60;93.10;;;;;;5070507;28;20511;-61
2022/09/05 10:56:10;;;;;;;2.00;1.25;;;29.90;94.00;;;;;;5068730;28;20073;-61
2022/09/05 10:58:58;;;;;;;1.67;1.33;;;30.00;93.90;;;;;;5065630;28;20103;-60
2022/09/05 11:01:32;;;;;;;1.60;1.20;;;30.20;91.80;;;;;;5067517;28;20028;-61
2022/09/05 11:04:16;;;;;;;0.63;0.63;;;30.40;90.80;;;;;;5069158;28;20509;-62
2022/09/05 11:06:44;;;;;;;1.23;0.73;;;30.50;83.90;;;;;;5067086;28;20032;-61
2022/09/05 11:09:31;;;;;;;3.70;0.85;;;30.40;82.90;;;;;;5069811;28;20040;-63
2022/09/05 11:12:02;;;;;;;1.98;1.05;;;30.50;84.50;;;;;;5067765;28;20111;-61
2022/09/05 11:14:49;;;;;;;1.80;1.30;;;30.70;84.40;;;;;;5068937;28;20089;-59
2022/09/05 11:17:39;;;;;;;6.60;1.33;;;30.80;83.00;;;;;;5063038;28;20436;-62
2022/09/05 11:20:30;;;;;;;1.67;1.05;;;30.70;87.10;;;;;;5063367;28;20056;-60
2022/09/05 11:23:28;;;;;;;3.75;1.20;;;30.80;80.30;;;;;;5068246;28;20146;-61
2022/09/05 11:26:00;;;;;;;2.03;0.95;;;30.80;83.70;;;;;;5068530;28;20562;-58
2022/09/05 11:28:43;;;;;;;1.20;1.10;;;31.10;84.50;;;;;;5066202;28;20418;-61
2022/09/05 11:31:15;;;;;;;2.00;1.02;;;31.00;82.00;;;;;;5068946;28;20498;-60
2022/09/05 11:34:08;;;;;;;1.73;1.00;;;31.00;84.50;;;;;;5068780;28;20032;-58
2022/09/05 11:36:45;;;;;;;1.15;0.85;;;31.10;83.60;;;;;;5062267;28;20064;-60
2022/09/05 11:39:29;;;;;;;2.55;1.30;;;31.20;77.50;;;;;;5067803;28;20059;-62
2022/09/05 11:42:07;;;;;;;3.40;1.10;;;31.40;77.90;;;;;;5061173;28;20386;-62
2022/09/05 11:45:23;;;;;;;2.55;1.23;;;31.40;77.90;;;;;;5068596;28;20559;-62
2022/09/05 11:48:12;;;;;;;1.88;0.75;;;31.50;79.30;;;;;;5039429;28;20099;-61
2022/09/05 11:51:14;;;;;;;4.32;1.30;;;31.80;79.60;;;;;;5068675;28;20398;-61
2022/09/05 11:54:02;;;;;;;1.15;1.00;;;31.80;77.80;;;;;;5064806;28;20028;-59
2022/09/05 11:57:08;;;;;;;1.73;1.00;;;31.40;76.80;;;;;;5066942;28;20738;-60
2022/09/05 12:00:19;;;;;;;1.45;0.90;;;31.30;74.30;;;;;;5069281;28;20055;-59
2022/09/05 12:03:00;;;;;;;4.50;2.10;;;30.90;73.00;;;;;;5063590;28;20044;-57
2022/09/05 12:05:39;;;;;;;1.20;1.10;;;30.80;73.50;;;;;;5068355;28;20032;-63
2022/09/05 12:08:07;;;;;;;3.40;0.95;;;30.90;73.40;;;;;;5067255;28;20036;-61
2022/09/05 12:11:04;;;;;;;2.28;1.00;;;30.90;73.70;;;;;;5059901;28;20040;-58
2022/09/05 12:13:46;;;;;;;3.60;1.02;;;31.40;74.70;;;;;;5055658;28;20039;-63
2022/09/05 12:16:43;;;;;;;1.73;0.88;;;31.80;74.00;;;;;;5064843;28;20021;-62
2022/09/05 12:19:34;;;;;;;2.05;1.23;;;31.90;74.70;;;;;;5065442;28;20097;-61
2022/09/05 12:22:15;;;;;;;2.33;0.98;;;32.40;73.20;;;;;;5066929;28;20367;-62
2022/09/05 12:24:54;;;;;;;3.80;0.82;;;32.80;70.00;;;;;;5067823;28;20029;-62
2022/09/05 12:27:24;;;;;;;1.27;0.90;;;33.00;70.50;;;;;;5064244;28;20482;-64
2022/09/05 12:29:55;;;;;;;1.60;0.85;;;33.00;68.90;;;;;;5068063;28;20106;-62
2022/09/05 12:32:24;;;;;;;4.20;1.20;;;33.20;72.10;;;;;;5068472;28;20398;-61
2022/09/05 12:35:02;;;;;;;1.48;1.38;;;33.10;71.00;;;;;;5065109;28;20140;-61
2022/09/05 12:37:32;;;;;;;1.55;1.38;;;33.40;70.40;;;;;;5059735;28;20032;-61
2022/09/05 12:40:16;;;;;;;2.30;1.20;;;33.40;71.30;;;;;;5064032;28;20052;-60
2022/09/05 12:42:45;;;;;;;1.73;1.10;;;33.00;69.60;;;;;;5063668;28;20013;-58
2022/09/05 12:45:39;;;;;;;2.97;1.38;;;33.00;66.10;;;;;;5064198;28;20388;-61
2022/09/05 12:48:28;;;;;;;2.47;1.27;;;33.10;66.70;;;;;;5063301;28;20024;-60
2022/09/05 12:51:04;;;;;;;2.10;1.17;;;33.00;65.50;;;;;;5066972;28;20028;-57
2022/09/05 12:53:45;;;;;;;5.38;1.17;;;33.00;63.90;;;;;;5066146;28;20028;-59
2022/09/05 12:56:21;;;;;;;1.00;0.90;;;33.10;63.30;;;;;;5066985;28;20036;-62
2022/09/05 12:58:50;;;;;;;7.45;1.23;;;33.20;64.60;;;;;;5061984;28;20564;-60
2022/09/05 13:01:24;;;;;;;2.30;1.23;;;32.70;69.40;;;;;;5060147;28;20107;-61
2022/09/05 13:04:17;;;;;;;1.38;1.10;;;33.20;62.30;;;;;;5059518;28;20017;-55
2022/09/05 13:06:46;;;;;;;2.63;0.98;;;33.10;63.30;;;;;;5062953;28;20040;-56
2022/09/05 13:09:35;;;;;;;3.10;1.20;;;32.90;64.60;;;;;;5069276;28;20032;-59
2022/09/05 13:12:17;;;;;;;3.28;0.80;;;33.20;62.00;;;;;;5071242;28;20023;-57
2022/09/05 13:14:57;;;;;;;1.95;1.10;;;33.00;64.60;;;;;;5069907;28;20021;-60
2022/09/05 13:17:47;;;;;;;2.35;1.08;;;33.30;63.50;;;;;;5065361;28;20061;-57
2022/09/05 13:20:34;;;;;;;2.75;1.08;;;33.30;61.80;;;;;;5070247;28;20661;-58
2022/09/05 13:23:16;;;;;;;1.48;1.00;;;33.70;59.90;;;;;;5059309;28;20517;-62
2022/09/05 13:25:49;;;;;;;1.38;0.95;;;33.60;59.40;;;;;;5067821;28;20035;-56
2022/09/05 13:28:16;;;;;;;4.97;0.83;;;33.20;61.60;;;;;;5060822;28;20032;-59
2022/09/05 13:30:54;;;;;;;2.92;1.10;;;33.00;61.10;;;;;;5064976;28;20708;-58
2022/09/05 13:33:35;;;;;;;1.77;0.90;;;33.60;60.30;;;;;;5065087;28;20090;-56
2022/09/05 13:36:09;;;;;;;2.42;0.90;;;33.50;60.00;;;;;;5063473;28;20028;-56
2022/09/05 13:39:00;;;;;;;1.77;0.93;;;33.20;60.20;;;;;;5068810;28;20028;-56
2022/09/05 13:41:32;;;;;;;1.00;0.90;;;32.70;59.90;;;;;;5067504;28;20020;-60
2022/09/05 13:44:01;;;;;;;1.63;1.02;;;32.50;63.60;;;;;;5062241;28;20056;-61
2022/09/05 13:46:37;;;;;;;0.80;0.80;;;32.60;60.30;;;;;;5059993;28;20032;-57
2022/09/05 13:49:35;;;;;;;4.13;1.08;;;32.60;59.50;;;;;;5064573;28;20028;-56
2022/09/05 13:52:04;;;;;;;1.65;1.08;;;32.70;60.70;;;;;;5062492;28;20035;-57
2022/09/05 13:54:46;;;;;;;2.67;0.95;;;33.30;58.60;;;;;;5065864;28;20036;-55
2022/09/05 13:57:32;;;;;;;4.05;1.17;;;33.70;58.60;;;;;;5061779;28;20031;-57
2022/09/05 14:00:08;;;;;;;2.50;1.08;;;33.70;58.60;;;;;;5065753;28;20024;-56
2022/09/05 14:02:43;;;;;;;1.85;0.93;;;33.20;58.40;;;;;;5062946;28;20099;-61
2022/09/05 14:05:42;;;;;;;1.25;0.90;;;32.80;58.00;;;;;;5066223;28;20056;-58
2022/09/05 14:08:16;;;;;;;1.42;0.90;;;33.10;60.80;;;;;;5063926;28;20055;-55